Time;durP1;ratioP1;P1;durP2;ratioP2;P2;SDS_P1;SDS_P2;PMS_P1;PMS_P2;Temp;Humidity;BMP_temperature;BMP_pressure;BME280_temperature;BME280_humidity;BME280_pressure;Samples;Min_cycle;Max_cycle;Signal;HPM_P1;HPM_P2
2021/12/18 00:00:49;;;;;;;7.18;4.07;;;;;;;;;;5084801;28;20066;-70
2021/12/18 00:03:16;;;;;;;6.55;3.58;;;;;;;;;;5085439;28;20126;-70
2021/12/18 00:05:43;;;;;;;8.98;3.17;;;;;;;;;;5085589;28;20044;-70
2021/12/18 00:08:10;;;;;;;9.82;3.42;;;;;;;;;;5083883;28;20085;-70
2021/12/18 00:10:36;;;;;;;3.28;2.20;;;;;;;;;;5067852;28;20036;-70
2021/12/18 00:13:02;;;;;;;4.68;2.58;;;;;;;;;;5051286;28;20387;-70
2021/12/18 00:15:29;;;;;;;5.18;2.72;;;;;;;;;;5083652;28;20036;-70
2021/12/18 00:17:56;;;;;;;4.93;2.85;;;;;;;;;;5082257;28;20036;-70
2021/12/18 00:20:24;;;;;;;4.43;2.92;;;;;;;;;;5084615;28;20032;-70
2021/12/18 00:22:50;;;;;;;10.02;2.92;;;;;;;;;;5081306;28;20048;-70
2021/12/18 00:25:16;;;;;;;3.72;2.65;;;;;;;;;;5085982;28;20032;-70
2021/12/18 00:27:42;;;;;;;5.65;2.60;;;;;;;;;;5085827;28;20036;-70
2021/12/18 00:30:09;;;;;;;4.18;2.60;;;;;;;;;;5068968;28;20052;-70
2021/12/18 00:32:35;;;;;;;5.28;2.72;;;;;;;;;;5082885;28;20491;-70
2021/12/18 00:35:02;;;;;;;6.65;3.10;;;;;;;;;;5069095;28;20062;-70
2021/12/18 00:37:28;;;;;;;12.90;3.33;;;;;;;;;;5081284;28;20043;-70
2021/12/18 00:39:59;;;;;;;13.32;3.88;;;;;;;;;;5083137;28;20051;-70
2021/12/18 00:45:16;;;;;;;6.45;3.60;;;;;;;;;;5084459;28;20476;-70
2021/12/18 00:47:43;;;;;;;11.18;3.90;;;;;;;;;;5084623;28;20090;-70
2021/12/18 00:50:10;;;;;;;6.93;3.60;;;;;;;;;;5083816;28;20048;-70
2021/12/18 00:52:36;;;;;;;11.15;4.22;;;;;;;;;;5084591;28;20044;-70
2021/12/18 00:55:03;;;;;;;6.70;3.33;;;;;;;;;;5084862;28;20480;-70
2021/12/18 00:57:29;;;;;;;6.68;3.10;;;;;;;;;;5085174;28;20066;-70
2021/12/18 01:00:00;;;;;;;4.15;2.15;;;;;;;;;;5083962;28;20044;-70
2021/12/18 01:02:27;;;;;;;4.57;2.53;;;;;;;;;;5085385;28;20044;-70
2021/12/18 01:04:53;;;;;;;3.42;2.10;;;;;;;;;;5085539;28;20047;-70
2021/12/18 01:07:19;;;;;;;3.45;2.20;;;;;;;;;;5084506;28;20040;-70
2021/12/18 01:10:02;;;;;;;4.25;2.33;;;;;;;;;;5085772;28;20468;-70
2021/12/18 01:12:36;;;;;;;3.47;1.88;;;;;;;;;;5085371;28;20071;-70
2021/12/18 01:23:34;;;;;;;3.60;2.25;;;;;;;;;;5082670;28;20089;-70
2021/12/18 01:26:03;;;;;;;3.47;2.13;;;;;;;;;;5086954;28;20119;-70
2021/12/18 01:28:29;;;;;;;3.67;2.05;;;;;;;;;;5083428;28;20048;-70
2021/12/18 01:30:55;;;;;;;3.38;2.25;;;;;;;;;;5078450;28;20040;-70
2021/12/18 01:33:21;;;;;;;7.93;2.95;;;;;;;;;;5087721;28;20133;-70
2021/12/18 01:35:48;;;;;;;5.35;2.55;;;;;;;;;;5086216;28;20051;-70
2021/12/18 01:38:14;;;;;;;5.47;2.50;;;;;;;;;;5080923;28;20192;-70
2021/12/18 01:40:40;;;;;;;4.78;2.80;;;;;;;;;;5086436;28;20081;-70
2021/12/18 01:51:45;;;;;;;7.28;2.90;;;;;;;;;;5086306;28;20189;-70
2021/12/18 01:54:11;;;;;;;5.88;2.55;;;;;;;;;;5086955;28;20185;-70
2021/12/18 01:56:37;;;;;;;5.93;3.10;;;;;;;;;;5070639;28;20422;-70
2021/12/18 01:59:03;;;;;;;5.45;2.70;;;;;;;;;;5086342;28;20044;-70
2021/12/18 02:01:29;;;;;;;3.50;2.38;;;;;;;;;;5105207;27;20098;-70
2021/12/18 02:03:55;;;;;;;4.63;2.53;;;;;;;;;;5069951;28;20032;-70
2021/12/18 02:06:22;;;;;;;3.55;2.35;;;;;;;;;;5087288;28;20054;-70
2021/12/18 02:08:49;;;;;;;7.30;2.65;;;;;;;;;;5086627;28;20032;-70
2021/12/18 02:21:46;;;;;;;4.35;2.80;;;;;;;;;;5082400;28;20047;-70
2021/12/18 02:24:12;;;;;;;4.47;2.75;;;;;;;;;;5082739;28;20040;-70
2021/12/18 02:26:38;;;;;;;4.57;2.65;;;;;;;;;;5070825;28;20061;-70
2021/12/18 02:29:05;;;;;;;7.00;2.83;;;;;;;;;;5083714;28;20704;-70
2021/12/18 02:31:32;;;;;;;4.18;2.53;;;;;;;;;;5085023;28;20040;-70
2021/12/18 02:33:58;;;;;;;5.63;2.58;;;;;;;;;;5070282;28;20518;-70
2021/12/18 02:36:25;;;;;;;5.93;3.10;;;;;;;;;;5085899;28;20040;-70
2021/12/18 02:43:58;;;;;;;4.45;2.63;;;;;;;;;;5086543;28;20492;-70
2021/12/18 02:46:24;;;;;;;4.28;2.65;;;;;;;;;;5084273;28;20055;-70
2021/12/18 02:48:52;;;;;;;7.38;3.17;;;;;;;;;;5085836;28;20037;-70
2021/12/18 02:51:19;;;;;;;4.60;3.08;;;;;;;;;;5102465;28;20064;-70
2021/12/18 02:53:46;;;;;;;54.72;4.68;;;;;;;;;;5068996;28;20036;-70
2021/12/18 02:56:12;;;;;;;8.85;3.58;;;;;;;;;;5084612;28;20036;-70
2021/12/18 02:58:39;;;;;;;16.83;3.53;;;;;;;;;;5086981;28;20472;-70
2021/12/18 03:01:07;;;;;;;6.70;3.47;;;;;;;;;;5085621;28;20523;-70
2021/12/18 03:03:37;;;;;;;8.75;3.80;;;;;;;;;;5081451;28;20036;-70
2021/12/18 03:08:49;;;;;;;10.95;2.80;;;;;;;;;;5085071;28;20080;-70
2021/12/18 03:22:43;;;;;;;6.70;2.80;;;;;;;;;;5085668;28;20388;-70
2021/12/18 03:25:08;;;;;;;23.38;3.15;;;;;;;;;;5082419;28;20055;-70
2021/12/18 03:27:34;;;;;;;11.07;2.92;;;;;;;;;;5068191;28;20040;-70
2021/12/18 03:30:01;;;;;;;57.92;3.78;;;;;;;;;;5068451;28;20473;-70
2021/12/18 03:32:27;;;;;;;32.90;3.03;;;;;;;;;;5084702;28;20424;-70
2021/12/18 03:34:54;;;;;;;21.20;2.47;;;;;;;;;;5085339;28;20055;-70
2021/12/18 03:37:20;;;;;;;12.23;2.95;;;;;;;;;;5081416;28;20697;-70
2021/12/18 03:39:47;;;;;;;35.28;3.42;;;;;;;;;;5084366;28;20589;-70
2021/12/18 03:42:13;;;;;;;31.80;3.38;;;;;;;;;;5084081;28;20059;-70
2021/12/18 03:44:39;;;;;;;10.48;2.22;;;;;;;;;;5084690;28;20044;-70
2021/12/18 03:47:06;;;;;;;32.25;3.53;;;;;;;;;;5083041;28;20040;-70
2021/12/18 03:49:33;;;;;;;19.73;2.33;;;;;;;;;;5085388;28;20564;-70
2021/12/18 03:51:59;;;;;;;14.27;2.42;;;;;;;;;;5083176;28;20159;-70
2021/12/18 03:54:25;;;;;;;4.38;1.60;;;;;;;;;;5083696;28;20113;-70
2021/12/18 03:56:51;;;;;;;8.20;1.80;;;;;;;;;;5085923;28;20040;-70
2021/12/18 03:59:17;;;;;;;12.15;1.73;;;;;;;;;;5084684;28;20048;-70
2021/12/18 04:01:44;;;;;;;3.60;2.00;;;;;;;;;;5085788;28;20379;-70
2021/12/18 04:04:10;;;;;;;3.08;1.73;;;;;;;;;;5082341;28;20040;-70
2021/12/18 04:06:38;;;;;;;3.88;1.67;;;;;;;;;;5065956;28;20090;-70
2021/12/18 04:09:04;;;;;;;4.15;2.05;;;;;;;;;;5085076;28;20115;-70
2021/12/18 04:11:30;;;;;;;8.00;1.95;;;;;;;;;;5083952;28;20036;-70
2021/12/18 04:13:57;;;;;;;3.72;1.60;;;;;;;;;;5082889;28;20032;-70
2021/12/18 04:16:23;;;;;;;3.92;1.45;;;;;;;;;;5083820;28;20182;-70
2021/12/18 04:18:49;;;;;;;3.97;1.88;;;;;;;;;;5083240;28;21295;-70
2021/12/18 04:21:15;;;;;;;2.20;1.23;;;;;;;;;;5052695;28;20131;-70
2021/12/18 04:23:41;;;;;;;4.88;1.13;;;;;;;;;;5083902;28;20044;-70
2021/12/18 04:26:07;;;;;;;2.80;1.00;;;;;;;;;;5068165;28;20506;-70
2021/12/18 04:28:33;;;;;;;3.47;1.08;;;;;;;;;;5084271;28;20032;-70
2021/12/18 04:30:59;;;;;;;2.95;0.90;;;;;;;;;;5084969;28;20081;-70
2021/12/18 04:33:26;;;;;;;2.13;1.00;;;;;;;;;;5066821;28;20503;-70
2021/12/18 04:35:52;;;;;;;1.98;0.90;;;;;;;;;;5082258;28;20074;-70
2021/12/18 04:38:18;;;;;;;1.80;0.90;;;;;;;;;;5084075;28;20567;-70
2021/12/18 04:40:44;;;;;;;2.33;1.05;;;;;;;;;;5085259;28;20130;-70
2021/12/18 04:43:11;;;;;;;2.10;0.90;;;;;;;;;;5081884;28;20068;-71
2021/12/18 04:45:37;;;;;;;4.47;1.05;;;;;;;;;;5081585;28;20089;-70
2021/12/18 04:48:03;;;;;;;2.38;1.10;;;;;;;;;;5066765;28;20039;-70
2021/12/18 04:50:29;;;;;;;7.53;1.38;;;;;;;;;;5084328;28;20047;-70
2021/12/18 04:52:55;;;;;;;2.33;1.20;;;;;;;;;;5085006;28;20507;-70
2021/12/18 04:55:21;;;;;;;3.78;1.45;;;;;;;;;;5084590;28;20040;-70
2021/12/18 04:57:49;;;;;;;4.15;1.45;;;;;;;;;;5085381;28;20115;-70
2021/12/18 05:00:16;;;;;;;5.03;1.30;;;;;;;;;;5090171;28;20492;-70
2021/12/18 05:02:44;;;;;;;4.20;1.48;;;;;;;;;;5088874;28;20044;-70
2021/12/18 05:05:13;;;;;;;3.20;1.45;;;;;;;;;;5088897;28;20052;-70
2021/12/18 05:07:39;;;;;;;5.40;1.45;;;;;;;;;;5086986;28;20105;-70
2021/12/18 05:10:06;;;;;;;3.13;1.20;;;;;;;;;;5086052;28;20407;-70
2021/12/18 05:12:32;;;;;;;3.47;1.20;;;;;;;;;;5085503;28;20040;-70
2021/12/18 05:14:58;;;;;;;2.28;1.10;;;;;;;;;;5087054;28;20039;-70
2021/12/18 05:17:24;;;;;;;3.83;1.33;;;;;;;;;;5088589;28;20506;-70
2021/12/18 05:19:50;;;;;;;4.30;1.60;;;;;;;;;;5089447;28;20044;-69
2021/12/18 05:22:16;;;;;;;3.30;1.50;;;;;;;;;;5085905;28;20089;-70
2021/12/18 05:24:43;;;;;;;3.63;1.80;;;;;;;;;;5071521;28;20126;-70
2021/12/18 05:27:09;;;;;;;3.83;1.63;;;;;;;;;;5088533;28;20518;-70
2021/12/18 05:29:35;;;;;;;3.28;1.80;;;;;;;;;;5086517;28;20075;-70
2021/12/18 05:32:01;;;;;;;4.80;2.28;;;;;;;;;;5087055;28;20040;-70
2021/12/18 05:34:33;;;;;;;3.67;1.90;;;;;;;;;;5087128;28;20064;-70
2021/12/18 05:39:27;;;;;;;3.67;2.03;;;;;;;;;;5088479;28;20087;-70
2021/12/18 05:41:53;;;;;;;4.18;2.20;;;;;;;;;;5084647;28;20200;-70
2021/12/18 05:44:20;;;;;;;4.57;1.83;;;;;;;;;;5084878;28;20040;-70
2021/12/18 05:46:47;;;;;;;4.80;2.10;;;;;;;;;;5085101;28;20066;-70
2021/12/18 05:49:13;;;;;;;4.13;1.90;;;;;;;;;;5083875;28;20127;-70
2021/12/18 05:51:39;;;;;;;6.65;2.40;;;;;;;;;;5086741;28;20127;-70
2021/12/18 05:54:06;;;;;;;6.38;2.60;;;;;;;;;;5069480;28;20071;-70
2021/12/18 05:56:32;;;;;;;6.57;3.03;;;;;;;;;;5082169;28;20048;-70
2021/12/18 05:58:59;;;;;;;6.43;2.70;;;;;;;;;;5082926;28;20051;-70
2021/12/18 06:01:26;;;;;;;7.18;3.20;;;;;;;;;;5070310;28;20036;-70
2021/12/18 06:03:52;;;;;;;6.78;3.35;;;;;;;;;;5085565;28;20055;-70
2021/12/18 06:06:18;;;;;;;7.93;3.28;;;;;;;;;;5067218;28;20032;-70
2021/12/18 06:08:45;;;;;;;11.23;3.38;;;;;;;;;;5084597;28;20047;-69
2021/12/18 06:11:16;;;;;;;5.38;3.30;;;;;;;;;;5083542;28;20043;-70
2021/12/18 06:13:43;;;;;;;5.65;3.22;;;;;;;;;;5080800;28;20065;-70
2021/12/18 06:16:09;;;;;;;7.30;3.35;;;;;;;;;;5087271;28;20088;-70
2021/12/18 06:18:36;;;;;;;6.40;3.10;;;;;;;;;;5083736;28;20040;-70
2021/12/18 06:21:02;;;;;;;6.13;3.40;;;;;;;;;;5081640;28;20044;-70
2021/12/18 06:23:29;;;;;;;5.50;2.45;;;;;;;;;;5086539;28;20043;-70
2021/12/18 06:25:55;;;;;;;4.55;2.10;;;;;;;;;;5086465;28;20123;-70
2021/12/18 06:28:21;;;;;;;4.95;2.22;;;;;;;;;;5081339;28;20036;-70
2021/12/18 06:30:47;;;;;;;4.78;2.40;;;;;;;;;;5067630;28;20542;-70
2021/12/18 06:33:13;;;;;;;5.18;2.40;;;;;;;;;;5082802;28;20043;-69
2021/12/18 06:35:39;;;;;;;5.38;2.28;;;;;;;;;;5086393;28;20043;-70
2021/12/18 06:38:05;;;;;;;9.15;2.75;;;;;;;;;;5068058;28;20372;-70
2021/12/18 06:40:31;;;;;;;7.10;2.30;;;;;;;;;;5080734;28;20036;-70
2021/12/18 06:42:57;;;;;;;10.82;3.05;;;;;;;;;;5062763;28;20048;-70
2021/12/18 06:45:23;;;;;;;8.48;3.17;;;;;;;;;;5069518;28;20485;-70
2021/12/18 06:47:49;;;;;;;9.40;3.17;;;;;;;;;;5086950;28;20047;-70
2021/12/18 06:50:15;;;;;;;10.65;3.30;;;;;;;;;;5085948;28;20063;-70
2021/12/18 06:52:41;;;;;;;10.13;3.13;;;;;;;;;;5086475;28;20056;-69
2021/12/18 06:55:08;;;;;;;8.30;3.95;;;;;;;;;;5086457;28;20048;-70
2021/12/18 06:57:34;;;;;;;10.77;4.43;;;;;;;;;;5068499;28;20032;-70
2021/12/18 07:00:00;;;;;;;15.90;4.90;;;;;;;;;;5081906;28;20129;-70
2021/12/18 07:02:26;;;;;;;14.27;4.93;;;;;;;;;;5083033;28;20082;-69
2021/12/18 07:04:52;;;;;;;15.73;5.22;;;;;;;;;;5086447;28;20100;-70
2021/12/18 07:07:18;;;;;;;9.63;4.65;;;;;;;;;;5083954;28;20040;-70
2021/12/18 07:09:44;;;;;;;13.50;5.15;;;;;;;;;;5086334;28;20093;-70
2021/12/18 07:12:11;;;;;;;11.02;4.75;;;;;;;;;;5084642;28;20197;-70
2021/12/18 07:14:37;;;;;;;11.85;4.18;;;;;;;;;;5068119;28;20531;-70
2021/12/18 07:17:04;;;;;;;10.48;4.40;;;;;;;;;;5084032;28;20680;-70
2021/12/18 07:19:30;;;;;;;11.90;4.13;;;;;;;;;;5083909;28;20043;-70
2021/12/18 07:21:56;;;;;;;11.13;3.78;;;;;;;;;;5065448;28;20055;-69
2021/12/18 07:24:22;;;;;;;13.20;4.28;;;;;;;;;;5082853;28;20407;-70
2021/12/18 07:26:48;;;;;;;10.80;3.85;;;;;;;;;;5085614;28;20377;-71
2021/12/18 07:29:14;;;;;;;12.68;4.10;;;;;;;;;;5084351;28;20483;-70
2021/12/18 07:31:40;;;;;;;9.60;3.95;;;;;;;;;;5067084;28;21378;-70
2021/12/18 07:34:06;;;;;;;11.43;4.50;;;;;;;;;;5081585;28;20101;-70
2021/12/18 07:36:32;;;;;;;16.02;4.47;;;;;;;;;;5085149;28;20115;-70
2021/12/18 07:38:58;;;;;;;13.75;4.28;;;;;;;;;;5065161;28;20055;-70
2021/12/18 07:41:24;;;;;;;16.95;4.47;;;;;;;;;;5085928;28;20039;-70
2021/12/18 07:43:50;;;;;;;11.77;4.15;;;;;;;;;;5082728;28;20067;-70
2021/12/18 07:46:17;;;;;;;13.68;4.75;;;;;;;;;;5087071;28;20050;-69
2021/12/18 07:48:44;;;;;;;14.98;4.30;;;;;;;;;;5084247;28;20051;-70
2021/12/18 07:51:12;;;;;;;17.92;5.10;;;;;;;;;;5066628;28;20133;-69
2021/12/18 07:53:38;;;;;;;15.00;4.95;;;;;;;;;;5084777;28;20441;-69
2021/12/18 07:56:04;;;;;;;11.50;4.47;;;;;;;;;;5085119;28;20031;-70
2021/12/18 07:58:31;;;;;;;18.17;5.05;;;;;;;;;;5080680;28;20113;-70
2021/12/18 08:00:57;;;;;;;13.05;4.90;;;;;;;;;;5084315;28;20044;-69
2021/12/18 08:03:23;;;;;;;17.20;5.03;;;;;;;;;;5067424;28;20376;-69
2021/12/18 08:05:49;;;;;;;14.45;5.03;;;;;;;;;;5063316;28;20043;-70
2021/12/18 08:08:15;;;;;;;10.68;4.47;;;;;;;;;;5077942;28;20044;-69
2021/12/18 08:10:41;;;;;;;11.68;5.13;;;;;;;;;;5068355;28;20488;-69
2021/12/18 08:13:07;;;;;;;8.75;3.97;;;;;;;;;;5077562;28;20384;-68
2021/12/18 08:15:34;;;;;;;9.65;4.63;;;;;;;;;;5083866;28;20051;-69
2021/12/18 08:18:05;;;;;;;9.60;4.20;;;;;;;;;;5080313;28;20055;-69
2021/12/18 08:20:32;;;;;;;9.68;4.63;;;;;;;;;;5082294;28;20625;-69
2021/12/18 08:23:00;;;;;;;8.60;4.00;;;;;;;;;;5081599;28;20608;-69
2021/12/18 08:25:27;;;;;;;8.50;4.00;;;;;;;;;;5067683;28;20040;-69
2021/12/18 08:27:55;;;;;;;12.63;4.45;;;;;;;;;;5081078;28;20058;-69
2021/12/18 08:30:21;;;;;;;12.00;4.10;;;;;;;;;;5081380;28;20048;-69
2021/12/18 08:32:47;;;;;;;8.07;4.20;;;;;;;;;;5077608;28;20043;-69
2021/12/18 08:35:13;;;;;;;11.43;4.05;;;;;;;;;;5086142;28;20452;-69
2021/12/18 08:37:40;;;;;;;10.52;4.18;;;;;;;;;;5080994;28;20036;-69
2021/12/18 08:40:07;;;;;;;7.57;3.15;;;;;;;;;;5071540;28;20052;-70
2021/12/18 08:42:33;;;;;;;9.25;3.10;;;;;;;;;;5090312;28;20047;-69
2021/12/18 08:44:59;;;;;;;10.38;3.58;;;;;;;;;;5072336;28;20122;-69
2021/12/18 08:47:25;;;;;;;10.75;3.45;;;;;;;;;;5084350;28;20040;-69
2021/12/18 08:49:52;;;;;;;8.95;3.50;;;;;;;;;;5048805;28;20056;-69
2021/12/18 08:52:19;;;;;;;8.38;3.05;;;;;;;;;;5088844;28;20074;-69
2021/12/18 08:54:45;;;;;;;7.93;2.70;;;;;;;;;;5089943;28;20048;-69
2021/12/18 08:57:12;;;;;;;6.55;2.92;;;;;;;;;;5086595;28;20372;-70
2021/12/18 08:59:39;;;;;;;10.43;3.25;;;;;;;;;;5085988;28;20071;-70
2021/12/18 09:02:05;;;;;;;7.95;3.17;;;;;;;;;;5085407;28;20495;-67
2021/12/18 09:04:32;;;;;;;8.60;3.53;;;;;;;;;;5086842;28;20063;-70
2021/12/18 09:06:58;;;;;;;8.32;3.50;;;;;;;;;;5070687;28;20564;-71
2021/12/18 09:09:24;;;;;;;8.55;3.42;;;;;;;;;;5085454;28;20105;-70
2021/12/18 09:11:50;;;;;;;8.93;3.65;;;;;;;;;;5086217;28;20510;-70
2021/12/18 09:14:16;;;;;;;8.48;3.90;;;;;;;;;;5086946;28;20123;-69
2021/12/18 09:16:42;;;;;;;10.93;3.97;;;;;;;;;;5086929;28;20056;-69
2021/12/18 09:19:08;;;;;;;9.15;3.80;;;;;;;;;;5088255;28;20395;-69
2021/12/18 09:21:34;;;;;;;11.73;4.18;;;;;;;;;;5087807;28;20048;-70
2021/12/18 09:24:00;;;;;;;9.10;4.10;;;;;;;;;;5071332;28;20044;-69
2021/12/18 09:26:27;;;;;;;8.48;3.83;;;;;;;;;;5085447;28;20043;-69
2021/12/18 09:28:53;;;;;;;9.00;4.05;;;;;;;;;;5088896;28;20040;-69
2021/12/18 09:31:19;;;;;;;8.82;3.95;;;;;;;;;;5070468;28;21308;-69
2021/12/18 09:33:45;;;;;;;8.48;4.03;;;;;;;;;;5089826;28;20115;-69
2021/12/18 09:36:11;;;;;;;11.63;4.47;;;;;;;;;;5089397;28;20092;-69
2021/12/18 09:38:37;;;;;;;10.98;3.80;;;;;;;;;;5088415;28;20384;-70
2021/12/18 09:41:04;;;;;;;7.53;3.50;;;;;;;;;;5071825;28;20120;-69
2021/12/18 09:43:30;;;;;;;10.32;4.07;;;;;;;;;;5088460;28;20115;-69
2021/12/18 09:46:04;;;;;;;11.73;4.38;;;;;;;;;;5087278;28;20145;-69
2021/12/18 09:48:31;;;;;;;11.00;4.43;;;;;;;;;;5085184;28;20039;-69
2021/12/18 09:50:58;;;;;;;11.00;4.13;;;;;;;;;;5088579;28;20453;-70
2021/12/18 09:53:25;;;;;;;10.02;5.07;;;;;;;;;;5088821;28;20047;-69
2021/12/18 09:55:51;;;;;;;11.18;4.10;;;;;;;;;;5088489;28;20570;-69
2021/12/18 09:58:17;;;;;;;11.40;4.60;;;;;;;;;;5088950;28;20036;-69
2021/12/18 10:00:43;;;;;;;11.35;4.40;;;;;;;;;;5088693;28;20043;-70
2021/12/18 10:03:09;;;;;;;16.10;4.95;;;;;;;;;;5088400;28;20048;-69
2021/12/18 10:05:36;;;;;;;14.45;5.10;;;;;;;;;;5086957;28;20047;-69
2021/12/18 10:08:05;;;;;;;9.85;4.47;;;;;;;;;;5087769;28;20036;-69
2021/12/18 10:10:31;;;;;;;10.18;4.57;;;;;;;;;;5071075;28;20082;-69
2021/12/18 10:13:08;;;;;;;10.80;5.07;;;;;;;;;;5087584;28;20043;-69
2021/12/18 10:15:35;;;;;;;11.27;5.22;;;;;;;;;;5082575;28;20044;-69
2021/12/18 10:18:11;;;;;;;9.50;4.28;;;;;;;;;;5088147;28;20036;-69
2021/12/18 10:20:38;;;;;;;11.88;4.95;;;;;;;;;;5087200;28;20032;-70
2021/12/18 10:23:05;;;;;;;14.65;5.43;;;;;;;;;;5088466;28;20036;-69
2021/12/18 10:25:38;;;;;;;14.50;5.30;;;;;;;;;;5087977;28;20055;-70
2021/12/18 10:28:14;;;;;;;9.82;4.88;;;;;;;;;;5088136;28;20044;-69
2021/12/18 10:30:40;;;;;;;;;;;;;;;;;;5088303;28;20476;-69
2021/12/18 10:33:07;;;;;;;10.57;5.15;;;;;;;;;;5104277;28;19988;-70
2021/12/18 10:35:43;;;;;;;15.35;5.82;;;;;;;;;;5087378;28;20523;-70
2021/12/18 10:38:09;;;;;;;9.38;5.32;;;;;;;;;;5070321;28;20062;-70
2021/12/18 10:40:41;;;;;;;12.27;5.57;;;;;;;;;;5087951;28;20122;-70
2021/12/18 10:43:07;;;;;;;12.32;5.63;;;;;;;;;;5086582;28;20119;-70
2021/12/18 10:45:34;;;;;;;14.48;6.22;;;;;;;;;;5086564;28;20048;-69
2021/12/18 10:48:08;;;;;;;9.98;5.18;;;;;;;;;;5070234;28;20039;-70
2021/12/18 10:50:40;;;;;;;15.02;5.80;;;;;;;;;;5082329;28;20503;-69
2021/12/18 10:53:08;;;;;;;11.20;5.43;;;;;;;;;;5083461;28;20458;-69
2021/12/18 10:55:35;;;;;;;12.13;5.40;;;;;;;;;;5082758;28;20158;-69
2021/12/18 10:58:02;;;;;;;12.73;5.78;;;;;;;;;;5085114;28;20167;-69
2021/12/18 11:00:33;;;;;;;15.43;5.70;;;;;;;;;;5078691;28;20051;-69
2021/12/18 11:03:20;;;;;;;12.65;6.13;;;;;;;;;;5087720;28;20628;-69
2021/12/18 11:06:02;;;;;;;11.35;5.70;;;;;;;;;;5085259;28;20044;-69
2021/12/18 11:08:28;;;;;;;12.82;6.03;;;;;;;;;;5080490;28;20043;-69
2021/12/18 11:13:59;;;;;;;11.77;5.85;;;;;;;;;;5080183;28;20044;-69
2021/12/18 11:16:27;;;;;;;13.65;6.55;;;;;;;;;;5080352;28;20036;-70
2021/12/18 11:18:54;;;;;;;12.98;5.32;;;;;;;;;;5085180;28;20044;-70
2021/12/18 11:21:23;;;;;;;11.32;5.72;;;;;;;;;;5068187;28;20028;-70
2021/12/18 11:23:52;;;;;;;15.73;6.40;;;;;;;;;;5084842;28;20039;-70
2021/12/18 11:26:18;;;;;;;14.35;5.88;;;;;;;;;;5085986;28;20126;-70
2021/12/18 11:28:48;;;;;;;10.93;5.82;;;;;;;;;;5069835;28;20380;-70
2021/12/18 11:31:15;;;;;;;13.68;6.55;;;;;;;;;;5085165;28;20047;-70
2021/12/18 11:33:41;;;;;;;12.43;5.80;;;;;;;;;;5084028;28;20427;-70
2021/12/18 11:36:08;;;;;;;11.68;5.88;;;;;;;;;;5086139;28;20044;-70
2021/12/18 11:38:35;;;;;;;10.45;6.38;;;;;;;;;;5103124;27;20040;-69
2021/12/18 11:41:01;;;;;;;13.73;6.38;;;;;;;;;;5086276;28;20047;-70
2021/12/18 11:43:37;;;;;;;13.07;6.88;;;;;;;;;;5083685;28;20071;-70
2021/12/18 11:46:24;;;;;;;15.52;7.15;;;;;;;;;;5085422;28;20079;-70
2021/12/18 11:49:02;;;;;;;11.45;6.38;;;;;;;;;;5085225;28;20071;-70
2021/12/18 11:51:29;;;;;;;15.50;6.88;;;;;;;;;;5085573;28;20510;-70
2021/12/18 11:53:55;;;;;;;14.57;7.00;;;;;;;;;;5085414;28;20093;-70
2021/12/18 11:56:22;;;;;;;14.90;6.95;;;;;;;;;;5080943;28;21372;-70
2021/12/18 11:58:48;;;;;;;14.07;6.18;;;;;;;;;;5066235;28;20047;-70
2021/12/18 12:01:14;;;;;;;14.95;6.65;;;;;;;;;;5085037;28;20479;-70
2021/12/18 12:03:43;;;;;;;10.73;5.38;;;;;;;;;;5085305;28;20115;-69
2021/12/18 12:06:24;;;;;;;8.23;4.93;;;;;;;;;;5081999;28;20106;-69
2021/12/18 14:18:35;;;;;;;10.18;5.05;;;10.10;99.90;;;;;;5155123;27;20114;-69
2021/12/18 14:21:01;;;;;;;12.13;4.53;;;8.50;99.90;;;;;;5135663;27;20039;-70
2021/12/18 14:23:39;;;;;;;11.80;4.72;;;8.50;99.90;;;;;;5139787;27;20041;-70
2021/12/18 14:26:17;;;;;;;9.07;5.28;;;8.50;99.90;;;;;;5137143;27;20079;-70
2021/12/18 14:28:44;;;;;;;8.85;4.38;;;8.60;99.90;;;;;;5120148;27;20486;-70
2021/12/18 14:31:49;;;;;;;11.00;5.03;;;8.50;99.90;;;;;;5134836;27;20386;-70
2021/12/18 14:34:23;;;;;;;12.20;5.18;;;8.60;99.90;;;;;;5097547;27;20050;-70
2021/12/18 14:36:57;;;;;;;9.05;5.13;;;8.60;99.90;;;;;;5123698;27;20070;-70
2021/12/18 14:39:25;;;;;;;11.82;5.35;;;8.60;99.90;;;;;;5116148;27;20054;-70
2021/12/18 14:42:08;;;;;;;11.85;5.10;;;8.60;99.90;;;;;;5117141;27;20046;-70
2021/12/18 14:44:35;;;;;;;12.55;6.35;;;8.60;99.90;;;;;;5111636;27;20036;-70
2021/12/18 14:47:24;;;;;;;7.60;4.68;;;8.60;99.90;;;;;;5114820;27;20039;-70
2021/12/18 14:50:40;;;;;;;9.57;5.05;;;8.60;99.90;;;;;;5116438;27;20081;-70
2021/12/18 14:53:15;;;;;;;8.23;4.20;;;8.60;99.90;;;;;;5054566;27;20096;-70
2021/12/18 14:55:44;;;;;;;10.70;4.45;;;8.60;99.90;;;;;;5114861;27;20039;-70
2021/12/18 14:58:17;;;;;;;11.30;4.80;;;8.70;99.90;;;;;;5114982;27;20087;-70
2021/12/18 15:01:16;;;;;;;8.50;4.40;;;8.70;99.90;;;;;;5115731;27;20047;-70
2021/12/18 15:03:53;;;;;;;11.73;4.38;;;8.70;99.90;;;;;;5102092;27;20054;-70
2021/12/18 15:06:28;;;;;;;6.90;4.10;;;8.70;99.90;;;;;;5113604;27;20079;-70
2021/12/18 15:09:14;;;;;;;8.77;4.35;;;8.60;99.90;;;;;;5115031;27;20190;-70
2021/12/18 15:11:43;;;;;;;8.25;4.38;;;8.60;99.90;;;;;;5115593;27;20031;-69
2021/12/18 15:14:39;;;;;;;11.48;4.43;;;8.60;99.90;;;;;;5113716;27;20395;-70
2021/12/18 15:17:08;;;;;;;12.68;4.72;;;8.60;99.90;;;;;;5086360;27;20495;-70
2021/12/18 15:19:36;;;;;;;8.50;4.95;;;8.60;99.90;;;;;;5110931;27;20128;-70
2021/12/18 15:22:07;;;;;;;10.23;4.20;;;8.60;99.90;;;;;;5115342;27;20039;-70
2021/12/18 15:24:34;;;;;;;9.38;5.03;;;8.60;99.90;;;;;;5111943;27;20040;-68
2021/12/18 15:27:02;;;;;;;7.15;4.40;;;8.60;99.90;;;;;;5096594;27;20043;-68
2021/12/18 15:29:32;;;;;;;10.63;4.45;;;8.60;99.90;;;;;;5103779;27;20161;-70
2021/12/18 15:31:58;;;;;;;9.90;4.30;;;8.70;99.90;;;;;;5100093;27;20127;-69
2021/12/18 15:34:26;;;;;;;8.70;4.22;;;8.60;99.90;;;;;;5100796;27;20044;-70
2021/12/18 15:36:56;;;;;;;7.00;3.88;;;8.50;99.90;;;;;;5101178;27;20071;-70
2021/12/18 15:39:23;;;;;;;10.45;4.05;;;8.50;99.90;;;;;;5125521;27;20101;-70
2021/12/18 15:41:49;;;;;;;10.20;3.78;;;8.50;99.90;;;;;;5096457;27;20028;-70
2021/12/18 15:44:15;;;;;;;5.75;3.83;;;8.50;99.90;;;;;;5107683;27;20093;-70
2021/12/18 15:46:41;;;;;;;7.03;3.58;;;8.50;99.90;;;;;;5098291;27;20104;-70
2021/12/18 15:49:08;;;;;;;8.48;3.95;;;8.50;99.90;;;;;;5100237;27;20047;-69
2021/12/18 15:51:35;;;;;;;7.53;4.60;;;8.50;99.90;;;;;;5080131;27;20476;-70
2021/12/18 15:54:03;;;;;;;6.93;4.97;;;8.50;99.90;;;;;;5100828;27;20122;-69
2021/12/18 15:56:29;;;;;;;7.40;4.80;;;8.50;99.90;;;;;;5101552;27;20083;-69
2021/12/18 15:58:54;;;;;;;10.93;4.88;;;8.50;99.90;;;;;;5097183;28;20981;-70
2021/12/18 16:01:21;;;;;;;8.25;4.57;;;8.40;99.90;;;;;;5101280;27;20130;-70
2021/12/18 16:03:47;;;;;;;9.63;5.38;;;8.50;99.90;;;;;;5097539;27;20082;-69
2021/12/18 16:06:13;;;;;;;9.35;4.30;;;8.50;99.90;;;;;;5098944;27;20071;-70
2021/12/18 16:08:40;;;;;;;9.48;5.30;;;8.40;99.90;;;;;;5101129;27;20081;-70
2021/12/18 16:11:07;;;;;;;9.65;6.40;;;8.40;99.90;;;;;;5084389;27;20074;-69
2021/12/18 16:13:32;;;;;;;8.68;5.45;;;8.40;99.90;;;;;;5095318;27;20522;-70
2021/12/18 16:15:58;;;;;;;10.23;6.25;;;8.50;99.90;;;;;;5117717;27;20043;-69
2021/12/18 16:18:24;;;;;;;9.00;5.80;;;8.40;99.90;;;;;;5084487;27;20139;-68
2021/12/18 16:20:50;;;;;;;7.55;4.93;;;8.30;99.90;;;;;;5099079;27;20126;-69
2021/12/18 16:23:15;;;;;;;11.50;6.20;;;8.40;99.90;;;;;;5082341;27;20756;-69
2021/12/18 16:25:41;;;;;;;14.27;6.78;;;8.40;99.90;;;;;;5109217;27;20035;-69
2021/12/18 16:28:07;;;;;;;13.55;7.10;;;8.40;99.90;;;;;;5119665;27;20112;-69
2021/12/18 16:30:34;;;;;;;11.20;6.22;;;8.40;99.90;;;;;;5095367;27;20047;-69
2021/12/18 16:33:00;;;;;;;13.02;6.20;;;8.40;99.90;;;;;;5066258;27;21472;-69
2021/12/18 16:35:26;;;;;;;10.30;6.88;;;8.40;99.90;;;;;;5098664;27;20126;-69
2021/12/18 16:38:05;;;;;;;11.77;7.70;;;8.30;99.90;;;;;;5101035;27;20121;-69
2021/12/18 16:40:37;;;;;;;12.15;7.57;;;8.30;99.90;;;;;;5119539;27;20035;-69
2021/12/18 16:43:05;;;;;;;13.50;8.02;;;8.30;99.90;;;;;;5099030;27;20077;-69
2021/12/18 16:45:34;;;;;;;10.35;7.18;;;8.30;99.90;;;;;;5101976;27;20110;-69
2021/12/18 16:47:59;;;;;;;9.73;6.78;;;8.30;99.90;;;;;;5101461;27;20043;-69
2021/12/18 16:50:25;;;;;;;10.75;7.40;;;8.30;99.90;;;;;;5103945;27;20471;-69
2021/12/18 16:52:51;;;;;;;11.70;7.30;;;8.30;99.90;;;;;;5119765;27;20048;-69
2021/12/18 16:55:17;;;;;;;10.38;7.82;;;8.10;99.90;;;;;;5101020;27;20126;-69
2021/12/18 16:57:44;;;;;;;10.13;7.28;;;8.20;99.90;;;;;;5095787;27;20039;-69
2021/12/18 17:00:11;;;;;;;11.05;7.05;;;8.20;99.90;;;;;;5084624;27;20376;-69
2021/12/18 17:02:36;;;;;;;9.20;5.47;;;8.20;99.90;;;;;;5081626;27;20032;-69
2021/12/18 17:05:04;;;;;;;6.50;5.20;;;8.10;99.90;;;;;;5097749;27;20519;-69
2021/12/18 17:07:30;;;;;;;7.53;5.22;;;8.10;99.90;;;;;;5101233;27;20043;-69
2021/12/18 17:10:00;;;;;;;20.33;16.75;;;8.60;99.90;;;;;;5124759;27;20045;-69
2021/12/18 17:12:29;;;;;;;13.43;8.93;;;8.10;99.90;;;;;;5097549;27;20122;-68
2021/12/18 17:14:55;;;;;;;11.13;6.90;;;8.10;99.90;;;;;;5099671;27;20048;-69
2021/12/18 17:17:21;;;;;;;35.13;28.13;;;8.10;99.90;;;;;;5102515;27;20490;-69
2021/12/18 17:19:47;;;;;;;22.98;18.10;;;8.10;99.90;;;;;;5099123;27;20443;-69
2021/12/18 17:22:13;;;;;;;16.50;12.43;;;8.10;99.90;;;;;;5083091;28;20114;-69